createdAt,value
2022-10-12T00:02:37.275Z,1004.17
2022-10-12T00:07:41.415Z,1004.04
2022-10-12T00:12:45.610Z,1003.89
2022-10-12T00:17:49.801Z,1003.84
2022-10-12T00:22:53.937Z,1003.74
2022-10-12T00:27:58.082Z,1003.83
2022-10-12T00:33:02.270Z,1003.89
2022-10-12T00:38:06.405Z,1003.91
2022-10-12T00:43:10.593Z,1003.94
2022-10-12T00:48:12.821Z,1004.06
2022-10-12T00:53:17.019Z,1004.02
2022-10-12T00:58:21.140Z,1004.03
2022-10-12T01:03:25.379Z,1004.17
2022-10-12T01:08:29.493Z,1004.07
2022-10-12T01:13:33.658Z,1004.06
2022-10-12T01:18:37.844Z,1004.06
2022-10-12T01:23:42.134Z,1004.06
2022-10-12T01:28:46.289Z,1004.03
2022-10-12T01:33:50.345Z,1003.94
2022-10-12T01:38:54.500Z,1003.90
2022-10-12T01:43:58.657Z,1003.87
2022-10-12T01:49:02.829Z,1003.84
2022-10-12T01:54:07.006Z,1003.87
2022-10-12T01:59:11.144Z,1003.73
2022-10-12T02:04:15.336Z,1003.62
2022-10-12T02:09:19.502Z,1003.52
2022-10-12T02:19:27.813Z,1003.49
2022-10-12T02:24:31.999Z,1003.60
2022-10-12T02:29:36.128Z,1003.53
2022-10-12T02:34:40.288Z,1003.62
2022-10-12T02:39:44.449Z,1003.60
2022-10-12T02:44:48.664Z,1003.50
2022-10-12T02:49:52.811Z,1003.36
2022-10-12T02:54:56.955Z,1003.24
2022-10-12T03:00:01.162Z,1003.12
2022-10-12T03:05:05.286Z,1002.84
2022-10-12T03:10:09.470Z,1003.13
2022-10-12T03:15:13.622Z,1003.13
2022-10-12T03:20:18.093Z,1003.08
2022-10-12T03:25:21.950Z,1003.16
2022-10-12T03:30:26.121Z,1003.24
2022-10-12T03:35:30.293Z,1003.22
2022-10-12T03:40:34.462Z,1003.22
2022-10-12T03:45:38.635Z,1003.13
2022-10-12T03:50:42.760Z,1003.01
2022-10-12T03:55:46.934Z,1003.09
2022-10-12T04:00:51.115Z,1002.93
2022-10-12T04:05:55.278Z,1003.00
2022-10-12T04:10:59.455Z,1002.92
2022-10-12T04:16:03.610Z,1002.95
2022-10-12T04:21:07.776Z,1002.91
2022-10-12T04:26:11.934Z,1002.89
2022-10-12T04:31:16.103Z,1002.89
2022-10-12T04:36:20.266Z,1002.87
2022-10-12T04:41:24.405Z,1002.78
2022-10-12T04:46:28.585Z,1002.69
2022-10-12T04:51:32.728Z,1002.70
2022-10-12T04:56:36.923Z,1002.67
2022-10-12T05:01:41.184Z,1002.58
2022-10-12T05:06:45.259Z,1002.47
2022-10-12T05:11:49.407Z,1002.50
2022-10-12T05:16:53.602Z,1002.35
2022-10-12T05:21:57.739Z,1002.37
2022-10-12T05:27:01.895Z,1002.23
2022-10-12T05:32:06.048Z,1002.23
2022-10-12T05:37:10.224Z,1002.31
2022-10-12T05:42:14.381Z,1002.33
2022-10-12T05:47:18.550Z,1002.44
2022-10-12T05:52:22.705Z,1002.42
2022-10-12T05:57:26.857Z,1002.51
2022-10-12T06:02:31.120Z,1002.65
2022-10-12T06:07:35.217Z,1002.78
2022-10-12T06:12:39.615Z,1002.83
2022-10-12T06:17:41.668Z,1002.90
2022-10-12T06:22:45.814Z,1002.82
2022-10-12T06:27:49.994Z,1002.90
2022-10-12T06:32:54.111Z,1002.91
2022-10-12T06:37:58.276Z,1002.80
2022-10-12T06:43:02.470Z,1002.85
2022-10-12T06:48:04.749Z,1002.82
2022-10-12T06:53:08.884Z,1002.73
2022-10-12T06:58:13.055Z,1002.69
2022-10-12T07:03:17.248Z,1002.47
2022-10-12T07:08:21.374Z,1002.37
2022-10-12T07:13:25.593Z,1002.34
2022-10-12T07:18:29.743Z,1002.17
2022-10-12T07:23:33.890Z,1002.16
2022-10-12T07:28:38.095Z,1002.00
2022-10-12T07:33:42.246Z,1001.99
2022-10-12T07:38:46.363Z,1001.93
2022-10-12T07:43:50.552Z,1001.87
2022-10-12T07:48:54.714Z,1001.89
2022-10-12T07:53:58.876Z,1001.72
2022-10-12T07:59:03.049Z,1001.65
2022-10-12T08:04:07.211Z,1001.51
2022-10-12T08:09:11.348Z,1001.44
2022-10-12T08:14:15.543Z,1001.23
2022-10-12T08:19:19.673Z,1001.10
2022-10-12T08:24:24.041Z,1000.97
2022-10-12T08:29:28.015Z,1000.83
2022-10-12T08:34:32.138Z,1000.46
2022-10-12T08:39:36.306Z,1000.34
2022-10-12T08:44:40.501Z,1000.02
2022-10-12T08:49:49.428Z,999.88
2022-10-12T08:59:52.930Z,999.49
2022-10-12T09:04:57.110Z,999.26
2022-10-12T09:10:01.309Z,999.16
2022-10-12T09:15:05.425Z,999.16
2022-10-12T09:20:09.572Z,999.35
2022-10-12T09:25:13.745Z,1000.07
2022-10-12T09:30:17.904Z,1001.12
2022-10-12T09:35:22.076Z,1002.26
2022-10-12T09:40:26.270Z,1003.49
2022-10-12T09:45:30.411Z,1004.69
2022-10-12T09:50:34.547Z,1005.94
2022-10-12T09:55:38.689Z,1006.89
2022-10-12T10:00:42.887Z,1007.65
2022-10-12T10:05:47.339Z,1008.10
2022-10-12T10:10:51.184Z,1008.42
2022-10-12T10:15:55.388Z,1008.89
2022-10-12T10:20:59.538Z,1009.42
2022-10-12T10:26:03.768Z,1009.98
2022-10-12T10:31:07.842Z,1010.10
2022-10-12T10:36:12.011Z,1010.48
2022-10-12T10:41:16.152Z,1010.80
2022-10-12T10:46:20.309Z,1011.23
2022-10-12T10:56:28.648Z,1011.00
2022-10-12T11:01:32.929Z,1011.17
2022-10-12T11:06:36.965Z,1011.51
2022-10-12T11:11:41.139Z,1011.51
2022-10-12T11:16:45.266Z,1011.68
2022-10-12T11:21:49.433Z,1011.75
2022-10-12T11:26:53.584Z,1011.60
2022-10-12T11:31:57.762Z,1011.76
2022-10-12T11:37:18.715Z,1011.66
2022-10-12T11:42:21.317Z,1011.64
2022-10-12T11:47:10.242Z,1011.51
2022-10-12T11:52:14.436Z,1011.41
2022-10-12T11:57:18.603Z,1011.24
2022-10-12T12:02:22.717Z,1011.32
2022-10-12T12:07:26.916Z,1011.33
2022-10-12T12:12:31.063Z,1011.40
2022-10-12T12:17:33.323Z,1011.25
2022-10-12T12:27:41.625Z,1010.93
2022-10-12T12:32:45.789Z,1010.93
2022-10-12T12:37:49.960Z,1010.82
2022-10-12T12:42:54.124Z,1011.09
2022-10-12T12:47:58.324Z,1010.98
2022-10-12T12:53:02.417Z,1011.01
2022-10-12T12:58:17.598Z,1011.02
2022-10-12T13:08:14.943Z,1010.85
2022-10-12T13:13:19.123Z,1010.79
2022-10-12T13:18:45.771Z,1010.73
2022-10-12T13:23:27.472Z,1010.67
2022-10-12T13:28:31.698Z,1010.36
2022-10-12T13:33:35.754Z,1010.26
2022-10-12T13:38:39.927Z,1010.28
2022-10-12T13:43:44.090Z,1010.38
2022-10-12T13:48:59.307Z,1010.48
2022-10-12T13:53:52.410Z,1010.46
2022-10-12T13:58:56.546Z,1010.24
2022-10-12T14:04:00.697Z,1010.07
2022-10-12T14:09:04.866Z,1010.04
2022-10-12T14:14:09.002Z,1010.31
2022-10-12T14:19:13.214Z,1010.18
2022-10-12T14:24:17.344Z,1009.90
2022-10-12T14:29:21.512Z,1009.82
2022-10-12T14:34:25.654Z,1010.08
2022-10-12T14:39:29.820Z,1010.01
2022-10-12T14:44:33.994Z,1010.13
2022-10-12T14:49:38.172Z,1010.06
2022-10-12T14:54:42.275Z,1009.91
2022-10-12T14:59:46.428Z,1009.90
2022-10-12T15:04:50.693Z,1009.71
2022-10-12T15:09:54.714Z,1009.77
2022-10-12T15:14:58.880Z,1009.77
2022-10-12T15:20:03.063Z,1009.79
2022-10-12T15:25:07.247Z,1009.72
2022-10-12T15:30:11.399Z,1009.61
2022-10-12T15:35:15.559Z,1009.46
2022-10-12T15:40:19.710Z,1009.43
2022-10-12T15:45:23.849Z,1009.43
2022-10-12T15:50:28.031Z,1009.34
2022-10-12T15:55:32.194Z,1009.34
2022-10-12T16:00:36.504Z,1009.23
2022-10-12T16:05:40.593Z,1009.05
2022-10-12T16:10:44.711Z,1008.99
2022-10-12T16:15:48.802Z,1008.79
2022-10-12T16:20:54.112Z,1008.38
2022-10-12T16:25:57.407Z,1007.95
2022-10-12T16:31:01.291Z,1007.75
2022-10-12T16:36:05.450Z,1007.51
2022-10-12T16:41:09.663Z,1007.54
2022-10-12T16:46:13.803Z,1007.47
2022-10-12T16:51:20.197Z,1007.04
2022-10-12T16:56:22.152Z,1007.01
2022-10-12T17:01:26.276Z,1006.85
2022-10-12T17:06:30.426Z,1006.83
2022-10-12T17:11:34.582Z,1006.85
2022-10-12T17:16:38.743Z,1006.87
2022-10-12T17:21:42.937Z,1006.51
2022-10-12T17:26:47.063Z,1006.32
2022-10-12T17:31:51.198Z,1006.29
2022-10-12T17:36:55.403Z,1006.20
2022-10-12T17:41:59.560Z,1006.02
2022-10-12T17:47:01.809Z,1005.59
2022-10-12T17:52:05.982Z,1005.46
2022-10-12T17:57:10.121Z,1005.04
2022-10-12T18:02:14.292Z,1004.60
2022-10-12T18:07:18.871Z,1004.23
2022-10-12T18:12:22.637Z,1003.57
2022-10-12T18:17:26.770Z,1002.16
2022-10-12T18:22:30.969Z,1001.78
2022-10-12T18:27:35.101Z,1001.32
2022-10-12T18:32:39.264Z,1000.92
2022-10-12T18:37:43.429Z,1000.56
2022-10-12T18:47:51.770Z,1000.22
2022-10-12T18:52:55.957Z,1000.10
2022-10-12T18:58:00.088Z,1000.20
2022-10-12T19:08:08.420Z,999.78
2022-10-12T19:13:12.574Z,999.41
2022-10-12T19:18:16.736Z,999.14
2022-10-12T19:23:20.952Z,999.15
2022-10-12T19:28:25.132Z,998.98
2022-10-12T19:33:29.276Z,998.83
2022-10-12T19:38:33.421Z,998.69
2022-10-12T19:43:37.591Z,998.33
2022-10-12T19:48:41.769Z,998.24
2022-10-12T19:53:45.855Z,998.21
2022-10-12T19:58:50.080Z,998.18
2022-10-12T20:03:54.230Z,998.14
2022-10-12T20:08:58.489Z,998.11
2022-10-12T20:14:02.512Z,997.85
2022-10-12T20:19:07.276Z,997.77
2022-10-12T20:24:10.832Z,997.78
2022-10-12T20:29:15.026Z,997.66
2022-10-12T20:34:19.185Z,997.70
2022-10-12T20:39:23.310Z,997.64
2022-10-12T20:44:27.497Z,997.62
2022-10-12T20:49:31.682Z,997.65
2022-10-12T20:54:35.822Z,997.71
2022-10-12T20:59:39.950Z,997.82
2022-10-12T21:04:44.155Z,997.68
2022-10-12T21:09:48.296Z,997.78
2022-10-12T21:14:52.471Z,997.67
2022-10-12T21:19:56.838Z,997.73
2022-10-12T21:25:00.793Z,997.64
2022-10-12T21:30:04.953Z,997.62
2022-10-12T21:35:09.090Z,997.57
2022-10-12T21:40:13.280Z,997.57
2022-10-12T21:45:17.434Z,997.51
2022-10-12T21:50:21.592Z,997.48
2022-10-12T21:55:25.774Z,997.52
2022-10-12T22:00:29.952Z,997.49
2022-10-12T22:05:34.092Z,997.62
2022-10-12T22:10:38.276Z,997.56
2022-10-12T22:15:42.422Z,997.54
2022-10-12T22:20:46.575Z,997.51
2022-10-12T22:25:50.705Z,997.51
2022-10-12T22:30:54.894Z,997.57
2022-10-12T22:35:59.035Z,997.50
2022-10-12T22:41:03.252Z,997.31
2022-10-12T22:46:07.378Z,997.24
2022-10-12T22:51:11.580Z,997.33
2022-10-12T22:56:15.724Z,997.25
2022-10-12T23:01:19.883Z,997.12
2022-10-12T23:06:24.022Z,997.08
2022-10-12T23:11:28.230Z,997.05
2022-10-12T23:16:30.461Z,996.98
2022-10-12T23:21:34.635Z,996.94
2022-10-12T23:26:38.787Z,996.86
2022-10-12T23:31:42.991Z,996.81
2022-10-12T23:36:47.175Z,996.65
2022-10-12T23:41:51.278Z,996.60
2022-10-12T23:46:53.522Z,996.51
2022-10-12T23:51:57.728Z,996.43
2022-10-12T23:57:01.888Z,996.45
